Time,TemperatureF,DewpointF,PressureIn,WindDirection,WindDirectionDegrees,WindSpeedMPH,WindSpeedGustMPH,Humidity,HourlyPrecipIn,Conditions,Clouds,dailyrainin,SoftwareType,DateUTC
2013-08-23 00:15:00,69.0,69.0,30.05,NNE,21,0.0,0.0,98,0.00,,,0.00,weatherlink.com 1.10,2013-08-23 04:15:00,
2013-08-23 00:29:00,68.6,68.0,30.05,NNE,21,0.0,0.0,98,0.00,,,0.00,weatherlink.com 1.10,2013-08-23 04:29:00,
2013-08-23 00:44:00,68.5,68.0,30.05,NNE,21,0.0,0.0,99,0.00,,,0.00,weatherlink.com 1.10,2013-08-23 04:44:00,
2013-08-23 00:59:00,68.2,68.0,30.05,NNE,21,0.0,0.0,99,0.00,,,0.00,weatherlink.com 1.10,2013-08-23 04:59:00,
2013-08-23 01:14:00,68.2,68.0,30.05,NNE,21,0.0,0.0,99,0.00,,,0.00,weatherlink.com 1.10,2013-08-23 05:14:00,
2013-08-23 01:29:00,68.1,68.0,30.05,NNE,21,0.0,0.0,99,0.00,,,0.00,weatherlink.com 1.10,2013-08-23 05:29:00,
2013-08-23 01:44:00,68.0,68.0,30.05,NNE,21,0.0,0.0,99,0.00,,,0.00,weatherlink.com 1.10,2013-08-23 05:44:00,
2013-08-23 01:59:00,68.2,68.0,30.05,NNE,21,0.0,0.0,99,0.00,,,0.00,weatherlink.com 1.10,2013-08-23 05:59:00,
2013-08-23 02:14:00,68.6,68.0,30.04,NNE,21,0.0,0.0,99,0.00,,,0.00,weatherlink.com 1.10,2013-08-23 06:14:00,
2013-08-23 02:29:00,68.9,69.0,30.03,NNE,21,0.0,0.0,99,0.00,,,0.00,weatherlink.com 1.10,2013-08-23 06:29:00,
2013-08-23 02:44:00,69.1,69.0,30.03,NNE,21,0.0,0.0,99,0.00,,,0.00,weatherlink.com 1.10,2013-08-23 06:44:00,
2013-08-23 02:59:00,69.1,69.0,30.03,NNE,21,0.0,0.0,99,0.00,,,0.00,weatherlink.com 1.10,2013-08-23 06:59:00,
2013-08-23 03:14:00,68.9,69.0,30.03,NNE,21,0.0,0.0,99,0.00,,,0.00,weatherlink.com 1.10,2013-08-23 07:14:00,
2013-08-23 03:29:00,68.8,69.0,30.02,NNE,21,0.0,0.0,99,0.00,,,0.00,weatherlink.com 1.10,2013-08-23 07:29:00,
2013-08-23 03:44:00,68.6,68.0,30.03,NNE,21,0.0,0.0,99,0.00,,,0.00,weatherlink.com 1.10,2013-08-23 07:44:00,
2013-08-23 04:01:00,68.4,68.0,30.02,NNE,21,0.0,0.0,99,0.00,,,0.00,weatherlink.com 1.10,2013-08-23 08:01:00,
2013-08-23 04:14:00,68.4,68.0,30.03,NNE,21,0.0,0.0,99,0.00,,,0.00,weatherlink.com 1.10,2013-08-23 08:14:00,
2013-08-23 04:29:00,68.2,68.0,30.03,NNE,21,0.0,0.0,99,0.00,,,0.00,weatherlink.com 1.10,2013-08-23 08:29:00,
2013-08-23 04:44:00,68.2,68.0,30.03,NNE,21,0.0,0.0,99,0.00,,,0.00,weatherlink.com 1.10,2013-08-23 08:44:00,
2013-08-23 04:59:00,68.3,68.0,30.03,NNE,21,0.0,0.0,99,0.00,,,0.00,weatherlink.com 1.10,2013-08-23 08:59:00,
2013-08-23 05:14:00,68.2,68.0,30.03,NNE,21,0.0,0.0,99,0.00,,,0.00,weatherlink.com 1.10,2013-08-23 09:14:00,
2013-08-23 05:29:00,68.1,68.0,30.03,NNE,21,0.0,0.0,99,0.00,,,0.00,weatherlink.com 1.10,2013-08-23 09:29:00,
2013-08-23 05:44:00,67.9,68.0,30.03,NNE,21,0.0,0.0,99,0.00,,,0.00,weatherlink.com 1.10,2013-08-23 09:44:00,
2013-08-23 05:59:00,67.4,67.0,30.03,NNE,21,0.0,0.0,99,0.00,,,0.00,weatherlink.com 1.10,2013-08-23 09:59:00,
2013-08-23 06:14:00,67.2,67.0,30.03,NNE,21,0.0,0.0,99,0.00,,,0.00,weatherlink.com 1.10,2013-08-23 10:14:00,
2013-08-23 06:29:00,67.1,67.0,30.04,NNE,21,0.0,0.0,99,0.00,,,0.00,weatherlink.com 1.10,2013-08-23 10:29:00,
2013-08-23 06:44:00,66.9,67.0,30.04,NNE,21,0.0,0.0,99,0.00,,,0.00,weatherlink.com 1.10,2013-08-23 10:44:00,
2013-08-23 06:59:00,66.7,66.0,30.04,NNE,21,0.0,0.0,99,0.00,,,0.00,weatherlink.com 1.10,2013-08-23 10:59:00,
2013-08-23 07:14:00,66.5,66.0,30.05,NNE,21,0.0,0.0,99,0.00,,,0.00,weatherlink.com 1.10,2013-08-23 11:14:00,
2013-08-23 07:29:00,66.4,66.0,30.06,NNE,21,0.0,1.0,99,0.00,,,0.00,weatherlink.com 1.10,2013-08-23 11:29:00,
2013-08-23 07:45:00,66.8,67.0,30.06,NNE,21,0.0,0.0,99,0.00,,,0.00,weatherlink.com 1.10,2013-08-23 11:45:00,
2013-08-23 07:59:00,67.4,67.0,30.06,NNE,21,0.0,0.0,99,0.00,,,0.00,weatherlink.com 1.10,2013-08-23 11:59:00,
2013-08-23 08:14:00,68.0,68.0,30.07,NNE,21,0.0,0.0,99,0.00,,,0.00,weatherlink.com 1.10,2013-08-23 12:14:00,
2013-08-23 08:29:00,68.7,68.0,30.07,NNE,19,0.0,0.0,99,0.00,,,0.00,weatherlink.com 1.10,2013-08-23 12:29:00,
2013-08-23 08:44:00,69.3,69.0,30.08,NNE,19,0.0,0.0,99,0.00,,,0.00,weatherlink.com 1.10,2013-08-23 12:44:00,
2013-08-23 08:59:00,69.4,69.0,30.07,NNE,19,0.0,0.0,99,0.00,,,0.00,weatherlink.com 1.10,2013-08-23 12:59:00,
2013-08-23 09:14:00,69.9,70.0,30.08,SSW,213,0.0,0.0,99,0.00,,,0.00,weatherlink.com 1.10,2013-08-23 13:14:00,
2013-08-23 09:29:00,70.7,70.0,30.08,SSW,213,0.0,1.0,99,0.00,,,0.00,weatherlink.com 1.10,2013-08-23 13:29:00,
2013-08-23 09:44:00,71.4,71.0,30.08,SSW,213,0.0,0.0,99,0.00,,,0.00,weatherlink.com 1.10,2013-08-23 13:44:00,
2013-08-23 09:59:00,71.9,72.0,30.07,SW,214,0.0,1.0,99,0.00,,,0.00,weatherlink.com 1.10,2013-08-23 13:59:00,
2013-08-23 10:14:00,74.0,73.0,30.08,SSW,192,0.0,0.0,97,0.00,,,0.00,weatherlink.com 1.10,2013-08-23 14:14:00,
2013-08-23 10:30:00,76.1,74.0,30.08,South,173,0.0,0.0,92,0.00,,,0.00,weatherlink.com 1.10,2013-08-23 14:30:00,
2013-08-23 10:45:00,77.6,74.0,30.08,South,173,0.0,0.0,89,0.00,,,0.00,weatherlink.com 1.10,2013-08-23 14:45:00,
2013-08-23 11:00:00,79.5,75.0,30.08,West,262,0.0,1.0,85,0.00,,,0.00,weatherlink.com 1.10,2013-08-23 15:00:00,
2013-08-23 11:15:00,80.3,75.0,30.07,West,263,0.0,1.0,84,0.00,,,0.00,weatherlink.com 1.10,2013-08-23 15:15:00,
2013-08-23 11:30:00,80.6,75.0,30.08,West,261,0.0,1.0,84,0.00,,,0.00,weatherlink.com 1.10,2013-08-23 15:30:00,
2013-08-23 11:45:00,80.9,75.0,30.07,North,6,0.0,2.0,82,0.00,,,0.00,weatherlink.com 1.10,2013-08-23 15:45:00,
2013-08-23 12:00:00,82.6,76.0,30.07,East,98,0.0,1.0,79,0.00,,,0.00,weatherlink.com 1.10,2013-08-23 16:00:00,
2013-08-23 12:15:00,83.4,76.0,30.07,NE,40,0.0,2.0,79,0.00,,,0.00,weatherlink.com 1.10,2013-08-23 16:15:00,
2013-08-23 12:30:00,84.9,76.0,30.06,South,180,0.0,2.0,74,0.00,,,0.00,weatherlink.com 1.10,2013-08-23 16:30:00,
2013-08-23 12:45:00,86.1,76.0,30.06,ESE,113,0.0,2.0,71,0.00,,,0.00,weatherlink.com 1.10,2013-08-23 16:45:00,
2013-08-23 13:00:00,87.2,76.0,30.05,North,6,0.0,1.0,70,0.00,,,0.00,weatherlink.com 1.10,2013-08-23 17:00:00,
2013-08-23 13:15:00,86.6,76.0,30.05,West,259,0.0,2.0,71,0.00,,,0.00,weatherlink.com 1.10,2013-08-23 17:15:00,
2013-08-23 13:30:00,86.3,76.0,30.05,West,259,0.0,0.0,72,0.00,,,0.00,weatherlink.com 1.10,2013-08-23 17:30:00,
2013-08-23 13:45:00,84.7,76.0,30.04,ESE,110,0.0,2.0,74,0.00,,,0.00,weatherlink.com 1.10,2013-08-23 17:45:00,
2013-08-23 14:00:00,85.0,76.0,30.03,ESE,105,0.0,1.0,75,0.00,,,0.00,weatherlink.com 1.10,2013-08-23 18:00:00,
2013-08-23 14:15:00,85.2,76.0,30.03,East,86,0.0,1.0,74,0.00,,,0.00,weatherlink.com 1.10,2013-08-23 18:15:00,
2013-08-23 14:30:00,86.3,74.0,30.02,North,359,0.0,4.0,66,0.00,,,0.00,weatherlink.com 1.10,2013-08-23 18:30:00,
2013-08-23 14:45:00,88.2,75.0,30.02,NW,326,0.0,1.0,65,0.00,,,0.00,weatherlink.com 1.10,2013-08-23 18:45:00,
2013-08-23 15:00:00,88.8,74.0,30.02,NNW,327,0.0,1.0,62,0.00,,,0.00,weatherlink.com 1.10,2013-08-23 19:00:00,
2013-08-23 15:15:00,86.5,74.0,30.01,East,84,0.0,1.0,67,0.00,,,0.00,weatherlink.com 1.10,2013-08-23 19:15:00,
2013-08-23 15:30:00,86.3,75.0,30.00,West,262,0.0,1.0,68,0.00,,,0.00,weatherlink.com 1.10,2013-08-23 19:30:00,
2013-08-23 15:45:00,87.8,74.0,29.99,ESE,122,0.0,1.0,64,0.00,,,0.00,weatherlink.com 1.10,2013-08-23 19:45:00,
2013-08-23 16:00:00,88.2,75.0,29.98,SW,236,0.0,1.0,65,0.00,,,0.00,weatherlink.com 1.10,2013-08-23 20:00:00,
2013-08-23 16:15:00,88.6,74.0,29.97,NNE,18,0.0,1.0,63,0.00,,,0.00,weatherlink.com 1.10,2013-08-23 20:15:00,
2013-08-23 16:30:00,89.3,74.0,29.97,NE,38,0.0,1.0,61,0.00,,,0.00,weatherlink.com 1.10,2013-08-23 20:30:00,
2013-08-23 16:45:00,90.2,73.0,29.97,NE,39,0.0,1.0,57,0.00,,,0.00,weatherlink.com 1.10,2013-08-23 20:45:00,
2013-08-23 17:00:00,90.0,72.0,29.96,ENE,58,0.0,1.0,56,0.00,,,0.00,weatherlink.com 1.10,2013-08-23 21:00:00,
2013-08-23 17:15:00,88.8,74.0,29.97,ESE,104,0.0,1.0,62,0.00,,,0.00,weatherlink.com 1.10,2013-08-23 21:15:00,
2013-08-23 17:30:00,88.3,75.0,29.97,East,89,0.0,1.0,65,0.00,,,0.00,weatherlink.com 1.10,2013-08-23 21:30:00,
2013-08-23 18:01:00,86.4,75.0,29.98,East,86,0.0,1.0,69,0.00,,,0.00,weatherlink.com 1.10,2013-08-23 22:01:00,
2013-08-23 18:16:00,85.0,75.0,29.99,East,85,0.0,1.0,71,0.00,,,0.00,weatherlink.com 1.10,2013-08-23 22:16:00,
2013-08-23 18:31:00,84.3,75.0,29.98,WNW,300,0.0,1.0,73,0.00,,,0.00,weatherlink.com 1.10,2013-08-23 22:31:00,
2013-08-23 18:47:00,83.2,74.0,30.00,ESE,120,3.0,13.0,73,0.00,,,0.00,weatherlink.com 1.10,2013-08-23 22:47:00,
2013-08-23 19:01:00,78.9,70.0,30.00,North,1,0.0,6.0,75,0.00,,,0.00,weatherlink.com 1.10,2013-08-23 23:01:00,
2013-08-23 19:16:00,75.9,71.0,30.00,NW,321,0.0,4.0,84,0.13,,,0.13,weatherlink.com 1.10,2013-08-23 23:16:00,
2013-08-23 19:31:00,73.6,71.0,30.03,NNE,17,0.0,2.0,91,0.13,,,0.13,weatherlink.com 1.10,2013-08-23 23:31:00,
2013-08-23 19:46:00,71.7,69.0,30.02,North,359,0.0,4.0,90,0.13,,,0.13,weatherlink.com 1.10,2013-08-23 23:46:00,
2013-08-23 20:01:00,70.9,69.0,30.01,North,359,0.0,1.0,93,0.14,,,0.14,weatherlink.com 1.10,2013-08-24 00:01:00,
2013-08-23 20:16:00,70.4,69.0,30.01,North,3,0.0,0.0,95,0.01,,,0.14,weatherlink.com 1.10,2013-08-24 00:16:00,
2013-08-23 20:31:00,70.4,69.0,30.00,NNE,20,0.0,1.0,95,0.01,,,0.14,weatherlink.com 1.10,2013-08-24 00:31:00,
2013-08-23 20:46:00,69.9,69.0,30.00,NNE,20,0.0,1.0,96,0.01,,,0.14,weatherlink.com 1.10,2013-08-24 00:46:00,
2013-08-23 21:01:00,69.8,69.0,30.01,ESE,108,0.0,0.0,96,0.00,,,0.14,weatherlink.com 1.10,2013-08-24 01:01:00,
2013-08-23 21:16:00,69.4,69.0,30.01,ESE,108,0.0,1.0,97,0.00,,,0.14,weatherlink.com 1.10,2013-08-24 01:16:00,
2013-08-23 21:31:00,69.2,68.0,30.02,ESE,108,0.0,1.0,97,0.00,,,0.14,weatherlink.com 1.10,2013-08-24 01:31:00,
2013-08-23 21:46:00,69.0,68.0,30.04,ESE,109,0.0,0.0,97,0.00,,,0.14,weatherlink.com 1.10,2013-08-24 01:46:00,
2013-08-23 22:01:00,69.1,68.0,30.04,ESE,109,0.0,1.0,97,0.00,,,0.14,weatherlink.com 1.10,2013-08-24 02:01:00,
2013-08-23 22:16:00,68.9,68.0,30.05,ESE,109,0.0,1.0,98,0.00,,,0.14,weatherlink.com 1.10,2013-08-24 02:16:00,
2013-08-23 22:32:00,68.7,68.0,30.05,ESE,109,0.0,0.0,98,0.00,,,0.14,weatherlink.com 1.10,2013-08-24 02:32:00,
2013-08-23 22:46:00,68.7,68.0,30.05,ESE,109,0.0,1.0,98,0.00,,,0.14,weatherlink.com 1.10,2013-08-24 02:46:00,
2013-08-23 23:01:00,68.4,68.0,30.06,ESE,109,0.0,0.0,98,0.01,,,0.15,weatherlink.com 1.10,2013-08-24 03:01:00,
2013-08-23 23:16:00,68.3,68.0,30.06,ESE,109,0.0,0.0,98,0.01,,,0.15,weatherlink.com 1.10,2013-08-24 03:16:00,
2013-08-23 23:31:00,68.1,68.0,30.06,ESE,109,0.0,0.0,98,0.01,,,0.15,weatherlink.com 1.10,2013-08-24 03:31:00,
2013-08-23 23:46:00,67.8,67.0,30.07,ESE,109,0.0,0.0,98,0.01,,,0.15,weatherlink.com 1.10,2013-08-24 03:46:00,